createdAt,value
2023-03-28T00:01:07.760Z,4.00
2023-03-28T00:03:41.082Z,2.22
2023-03-28T00:06:12.663Z,2.40
2023-03-28T00:08:41.669Z,1.92
2023-03-28T00:11:13.001Z,2.65
2023-03-28T00:13:40.973Z,4.32
2023-03-28T00:16:13.799Z,1.65
2023-03-28T00:18:43.887Z,2.92
2023-03-28T00:21:25.925Z,2.45
2023-03-28T00:23:55.939Z,1.87
2023-03-28T00:26:28.099Z,3.35
2023-03-28T00:28:57.808Z,2.65
2023-03-28T00:31:27.720Z,2.45
2023-03-28T00:33:55.779Z,1.45
2023-03-28T00:36:27.738Z,2.65
2023-03-28T00:38:55.681Z,3.22
2023-03-28T00:41:25.358Z,2.87
2023-03-28T00:43:56.275Z,4.55
2023-03-28T00:46:42.771Z,1.98
2023-03-28T00:49:23.897Z,2.20
2023-03-28T00:51:58.171Z,2.97
2023-03-28T00:54:30.900Z,2.00
2023-03-28T00:57:02.581Z,2.17
2023-03-28T00:59:34.018Z,2.03
2023-03-28T01:02:02.736Z,2.60
2023-03-28T01:04:47.907Z,2.65
2023-03-28T01:07:17.689Z,2.65
2023-03-28T01:09:47.054Z,5.60
2023-03-28T01:12:18.087Z,2.55
2023-03-28T01:14:46.899Z,2.95
2023-03-28T01:17:15.005Z,3.90
2023-03-28T01:20:16.130Z,2.03
2023-03-28T01:22:57.430Z,2.25
2023-03-28T01:25:57.396Z,2.12
2023-03-28T01:29:15.705Z,2.75
2023-03-28T01:32:11.327Z,3.90
2023-03-28T01:34:57.945Z,4.45
2023-03-28T01:37:38.947Z,2.37
2023-03-28T01:40:24.747Z,2.50
2023-03-28T01:43:01.909Z,1.92
2023-03-28T01:45:41.857Z,2.22
2023-03-28T01:48:18.837Z,2.00
2023-03-28T01:50:57.703Z,3.92
2023-03-28T01:53:33.778Z,2.03
2023-03-28T01:56:09.312Z,3.83
2023-03-28T01:58:43.396Z,2.70
2023-03-28T02:01:38.127Z,3.50
2023-03-28T02:04:20.608Z,5.37
2023-03-28T02:06:52.314Z,2.95
2023-03-28T02:09:24.827Z,2.05
2023-03-28T02:12:00.443Z,3.22
2023-03-28T02:14:35.130Z,2.85
2023-03-28T02:17:10.557Z,2.25
2023-03-28T02:19:39.978Z,5.65
2023-03-28T02:22:18.926Z,2.37
2023-03-28T02:24:51.878Z,3.50
2023-03-28T02:27:24.035Z,3.37
2023-03-28T02:29:52.689Z,2.42
2023-03-28T02:32:23.121Z,3.75
2023-03-28T02:34:55.211Z,3.08
2023-03-28T02:37:41.278Z,3.22
2023-03-28T02:40:28.569Z,2.53
2023-03-28T02:43:18.202Z,5.60
2023-03-28T02:46:07.658Z,2.28
2023-03-28T02:48:56.672Z,2.22
2023-03-28T02:51:35.999Z,4.75
2023-03-28T02:54:25.451Z,2.08
2023-03-28T02:57:14.355Z,4.32
2023-03-28T02:59:44.332Z,3.25
2023-03-28T03:02:18.529Z,3.00
2023-03-28T03:04:46.872Z,4.93
2023-03-28T03:07:15.246Z,2.50
2023-03-28T03:09:45.808Z,2.78
2023-03-28T03:12:14.654Z,3.87
2023-03-28T03:14:43.320Z,2.83
2023-03-28T03:17:11.477Z,2.10
2023-03-28T03:19:39.982Z,4.15
2023-03-28T03:22:08.751Z,3.00
2023-03-28T03:24:37.705Z,2.53
2023-03-28T03:27:05.723Z,3.70
2023-03-28T03:29:38.780Z,2.92
2023-03-28T03:32:07.923Z,3.25
2023-03-28T03:34:38.097Z,2.40
2023-03-28T03:37:06.222Z,2.78
2023-03-28T03:39:34.113Z,3.05
2023-03-28T03:42:02.004Z,3.08
2023-03-28T03:44:30.187Z,3.35
2023-03-28T03:46:58.757Z,2.75
2023-03-28T03:49:26.691Z,3.90
2023-03-28T03:51:54.578Z,2.28
2023-03-28T03:54:22.530Z,4.03
2023-03-28T03:56:50.431Z,3.72
2023-03-28T03:59:18.755Z,2.85
2023-03-28T04:01:46.692Z,2.67
2023-03-28T04:04:15.429Z,2.58
2023-03-28T04:06:43.333Z,3.58
2023-03-28T04:09:11.216Z,2.78
2023-03-28T04:11:39.213Z,2.60
2023-03-28T04:14:07.148Z,3.95
2023-03-28T04:16:40.277Z,4.07
2023-03-28T04:19:11.948Z,3.30
2023-03-28T04:21:43.860Z,3.00
2023-03-28T04:24:16.885Z,4.25
2023-03-28T04:26:47.162Z,2.67
2023-03-28T04:29:15.066Z,2.67
2023-03-28T04:31:51.085Z,4.03
2023-03-28T04:34:21.340Z,3.92
2023-03-28T04:36:49.234Z,2.80
2023-03-28T04:39:17.120Z,3.22
2023-03-28T04:41:47.373Z,4.05
2023-03-28T04:44:15.438Z,5.37
2023-03-28T04:46:43.500Z,2.70
2023-03-28T04:49:12.069Z,3.60
2023-03-28T04:51:39.954Z,3.47
2023-03-28T04:54:07.962Z,2.50
2023-03-28T04:56:36.223Z,4.93
2023-03-28T04:59:04.706Z,4.07
2023-03-28T05:01:32.701Z,2.90
2023-03-28T05:04:00.654Z,3.05
2023-03-28T05:06:28.588Z,2.90
2023-03-28T05:08:57.381Z,4.53
2023-03-28T05:11:25.380Z,4.35
2023-03-28T05:13:53.342Z,7.15
2023-03-28T05:16:21.338Z,4.07
2023-03-28T05:18:49.609Z,4.25
2023-03-28T05:21:17.721Z,3.95
2023-03-28T05:23:51.254Z,4.15
2023-03-28T05:26:20.367Z,4.28
2023-03-28T05:28:48.586Z,3.85
2023-03-28T05:31:18.681Z,3.42
2023-03-28T05:33:46.821Z,4.78
2023-03-28T05:36:14.874Z,4.60
2023-03-28T05:38:42.843Z,5.55
2023-03-28T05:41:11.306Z,5.30
2023-03-28T05:43:39.268Z,5.72
2023-03-28T05:46:07.809Z,5.37
2023-03-28T05:48:35.779Z,7.43
2023-03-28T05:51:03.724Z,4.55
2023-03-28T05:53:31.737Z,7.07
2023-03-28T05:55:59.703Z,4.10
2023-03-28T05:58:27.683Z,4.45
2023-03-28T06:00:58.143Z,5.12
2023-03-28T06:03:27.244Z,5.15
2023-03-28T06:05:55.369Z,5.25
2023-03-28T06:08:23.397Z,4.25
2023-03-28T06:10:51.284Z,6.05
2023-03-28T06:13:19.227Z,6.22
2023-03-28T06:15:47.169Z,6.32
2023-03-28T06:18:15.129Z,6.10
2023-03-28T06:20:43.147Z,5.55
2023-03-28T06:23:11.091Z,8.45
2023-03-28T06:25:39.047Z,9.40
2023-03-28T06:28:06.997Z,10.43
2023-03-28T06:30:35.066Z,10.23
2023-03-28T06:33:03.050Z,8.05
2023-03-28T06:35:31.163Z,4.85
2023-03-28T06:37:59.876Z,4.43
2023-03-28T06:40:27.967Z,5.30
2023-03-28T06:42:56.019Z,5.80
2023-03-28T06:45:24.008Z,4.65
2023-03-28T06:47:53.101Z,3.40
2023-03-28T06:50:21.462Z,5.28
2023-03-28T06:52:49.345Z,5.85
2023-03-28T06:55:17.384Z,3.90
2023-03-28T06:57:45.359Z,3.45
2023-03-28T07:00:14.012Z,3.30
2023-03-28T07:02:42.111Z,4.37
2023-03-28T07:05:10.518Z,5.15
2023-03-28T07:07:38.450Z,5.78
2023-03-28T07:10:07.324Z,5.68
2023-03-28T07:12:35.370Z,4.15
2023-03-28T07:15:03.361Z,6.85
2023-03-28T07:17:31.287Z,5.72
2023-03-28T07:19:59.159Z,4.35
2023-03-28T07:22:27.203Z,5.35
2023-03-28T07:24:55.600Z,4.18
2023-03-28T07:27:25.048Z,6.28
2023-03-28T07:29:53.241Z,5.03
2023-03-28T07:32:22.097Z,4.32
2023-03-28T07:34:50.064Z,4.62
2023-03-28T07:37:18.215Z,5.05
2023-03-28T07:39:46.253Z,5.28
2023-03-28T07:42:15.351Z,6.65
2023-03-28T07:44:43.560Z,6.62
2023-03-28T07:47:11.825Z,5.10
2023-03-28T07:49:40.989Z,4.97
2023-03-28T07:52:09.440Z,7.55
2023-03-28T07:54:37.451Z,7.90
2023-03-28T07:57:05.957Z,6.22
2023-03-28T07:59:34.778Z,4.20
2023-03-28T08:02:02.986Z,5.97
2023-03-28T08:04:30.992Z,6.37
2023-03-28T08:06:59.450Z,3.92
2023-03-28T08:09:27.447Z,3.60
2023-03-28T08:11:55.270Z,4.68
2023-03-28T08:14:23.528Z,6.07
2023-03-28T08:16:52.040Z,3.35
2023-03-28T08:19:20.005Z,4.15
2023-03-28T08:21:47.982Z,4.50
2023-03-28T08:24:25.277Z,5.22
2023-03-28T08:26:58.179Z,3.90
2023-03-28T08:29:26.379Z,4.32
2023-03-28T08:31:54.540Z,4.60
2023-03-28T08:34:22.433Z,5.43
2023-03-28T08:36:50.446Z,3.42
2023-03-28T08:39:18.477Z,4.32
2023-03-28T08:42:07.454Z,4.22
2023-03-28T08:44:50.560Z,5.30
2023-03-28T08:47:27.571Z,4.18
2023-03-28T08:50:12.938Z,6.60
2023-03-28T08:52:42.354Z,4.78
2023-03-28T08:55:25.876Z,4.70
2023-03-28T08:57:55.614Z,7.10
2023-03-28T09:00:25.863Z,5.05
2023-03-28T09:02:53.890Z,6.80
2023-03-28T09:06:08.912Z,4.72
2023-03-28T09:08:45.543Z,4.75
2023-03-28T09:11:39.399Z,4.97
2023-03-28T09:14:28.989Z,4.90
2023-03-28T09:17:10.913Z,5.47
2023-03-28T09:19:56.905Z,5.30
2023-03-28T09:22:54.700Z,4.12
2023-03-28T09:25:41.042Z,5.47
2023-03-28T09:28:30.292Z,5.18
2023-03-28T09:31:00.468Z,5.37
2023-03-28T09:33:41.978Z,4.70
2023-03-28T09:36:37.783Z,5.78
2023-03-28T09:39:28.972Z,7.35
2023-03-28T09:42:28.617Z,5.20
2023-03-28T09:45:06.465Z,7.43
2023-03-28T09:47:34.888Z,4.78
2023-03-28T09:50:12.423Z,4.68
2023-03-28T09:52:41.766Z,4.97
2023-03-28T09:55:23.207Z,4.75
2023-03-28T09:58:02.468Z,6.57
2023-03-28T10:00:31.029Z,4.25
2023-03-28T10:02:59.088Z,4.12
2023-03-28T10:05:41.443Z,4.32
2023-03-28T10:08:36.355Z,5.10
2023-03-28T10:11:08.215Z,3.35
2023-03-28T10:13:42.309Z,3.50
2023-03-28T10:16:13.273Z,3.80
2023-03-28T10:18:43.862Z,3.97
2023-03-28T10:21:16.170Z,4.82
2023-03-28T10:23:50.017Z,5.80
2023-03-28T10:26:25.788Z,3.83
2023-03-28T10:28:56.022Z,4.28
2023-03-28T10:31:30.675Z,5.30
2023-03-28T10:34:01.072Z,4.95
2023-03-28T10:36:45.092Z,2.90
2023-03-28T10:39:28.002Z,3.65
2023-03-28T10:41:59.569Z,3.12
2023-03-28T10:44:32.919Z,2.17
2023-03-28T10:47:05.194Z,2.70
2023-03-28T10:49:43.934Z,2.55
2023-03-28T10:52:29.820Z,1.75
2023-03-28T10:55:21.973Z,1.87
2023-03-28T10:58:12.763Z,2.78
2023-03-28T11:00:55.439Z,2.78
2023-03-28T11:03:44.639Z,3.15
2023-03-28T11:06:35.847Z,2.97
2023-03-28T11:09:36.763Z,3.37
2023-03-28T11:15:12.252Z,2.00
2023-03-28T11:18:18.565Z,1.50
2023-03-28T11:20:52.296Z,3.30
2023-03-28T11:23:47.596Z,2.83
2023-03-28T11:26:24.495Z,3.22
2023-03-28T11:29:08.470Z,1.62
2023-03-28T11:31:42.555Z,2.95
2023-03-28T11:34:34.211Z,1.58
2023-03-28T11:37:18.870Z,3.40
2023-03-28T11:39:49.575Z,3.37
2023-03-28T11:42:25.750Z,1.70
2023-03-28T11:45:02.475Z,1.87
2023-03-28T11:47:38.691Z,2.87
2023-03-28T11:50:16.693Z,3.37
2023-03-28T11:53:01.625Z,2.58
2023-03-28T11:55:36.032Z,2.20
2023-03-28T11:58:12.742Z,3.33
2023-03-28T12:01:04.791Z,2.92
2023-03-28T12:04:01.527Z,1.67
2023-03-28T12:06:55.894Z,2.87
2023-03-28T12:09:52.279Z,3.65
2023-03-28T12:12:34.504Z,2.50
2023-03-28T12:15:22.764Z,2.65
2023-03-28T12:17:56.020Z,2.42
2023-03-28T12:20:41.916Z,2.72
2023-03-28T12:23:23.654Z,3.15
2023-03-28T12:25:59.064Z,4.30
2023-03-28T12:28:44.909Z,3.53
2023-03-28T12:31:20.078Z,2.25
2023-03-28T12:34:00.990Z,2.50
2023-03-28T12:36:37.872Z,4.00
2023-03-28T12:39:25.906Z,2.00
2023-03-28T12:41:55.214Z,2.40
2023-03-28T12:44:30.240Z,2.50
2023-03-28T12:47:10.582Z,4.28
2023-03-28T12:49:53.928Z,3.22
2023-03-28T12:52:43.454Z,3.50
2023-03-28T12:55:27.064Z,4.10
2023-03-28T12:58:12.598Z,2.90
2023-03-28T13:00:59.039Z,2.58
2023-03-28T13:03:28.393Z,2.65
2023-03-28T13:06:21.632Z,3.47
2023-03-28T13:09:16.235Z,3.15
2023-03-28T13:12:07.448Z,2.85
2023-03-28T13:14:43.372Z,2.95
2023-03-28T13:17:19.345Z,2.67
2023-03-28T13:20:27.123Z,2.42
2023-03-28T13:23:06.065Z,3.00
2023-03-28T13:25:38.946Z,4.28
2023-03-28T13:28:13.053Z,3.25
2023-03-28T13:30:44.796Z,2.97
2023-03-28T13:33:30.936Z,5.18
2023-03-28T13:35:58.915Z,2.85
2023-03-28T13:38:29.809Z,2.50
2023-03-28T13:41:10.490Z,5.00
2023-03-28T13:43:43.312Z,2.80
2023-03-28T13:46:30.025Z,3.97
2023-03-28T13:49:04.248Z,2.97
2023-03-28T13:51:39.265Z,3.42
2023-03-28T13:54:07.451Z,4.10
2023-03-28T13:56:37.284Z,4.07
2023-03-28T13:59:09.277Z,4.62
2023-03-28T14:01:46.145Z,4.57
2023-03-28T14:04:24.373Z,3.22
2023-03-28T14:06:54.172Z,3.55
2023-03-28T14:09:31.854Z,3.17
2023-03-28T14:12:09.800Z,3.17
2023-03-28T14:14:47.371Z,3.37
2023-03-28T14:17:19.604Z,3.10
2023-03-28T14:19:52.467Z,3.35
2023-03-28T14:22:25.349Z,2.97
2023-03-28T14:24:55.529Z,4.50
2023-03-28T14:27:51.857Z,3.75
2023-03-28T14:30:22.854Z,2.97
2023-03-28T14:33:02.457Z,3.25
2023-03-28T14:35:35.707Z,3.12
2023-03-28T14:38:08.625Z,3.65
2023-03-28T14:40:39.471Z,4.20
2023-03-28T14:43:22.662Z,4.12
2023-03-28T14:45:55.392Z,3.30
2023-03-28T14:48:28.459Z,3.47
2023-03-28T14:50:57.402Z,3.83
2023-03-28T14:53:29.104Z,3.33
2023-03-28T14:56:03.410Z,3.55
2023-03-28T14:58:32.891Z,4.20
2023-03-28T15:01:03.223Z,3.60
2023-03-28T15:03:40.141Z,3.72
2023-03-28T15:06:10.707Z,3.17
2023-03-28T15:08:40.665Z,4.90
2023-03-28T15:11:24.905Z,3.37
2023-03-28T15:13:59.997Z,2.67
2023-03-28T15:16:29.340Z,2.50
2023-03-28T15:19:08.338Z,3.20
2023-03-28T15:21:38.637Z,2.75
2023-03-28T15:24:11.363Z,3.35
2023-03-28T15:26:45.046Z,4.22
2023-03-28T15:29:18.511Z,3.70
2023-03-28T15:31:47.333Z,3.03
2023-03-28T15:34:24.942Z,3.33
2023-03-28T15:36:59.908Z,3.10
2023-03-28T15:39:36.111Z,3.85
2023-03-28T15:42:22.632Z,2.70
2023-03-28T15:44:59.642Z,3.58
2023-03-28T15:47:31.500Z,2.67
2023-03-28T15:50:06.080Z,2.37
2023-03-28T15:52:35.573Z,2.53
2023-03-28T15:55:07.146Z,2.80
2023-03-28T15:57:35.502Z,2.85
2023-03-28T16:00:03.414Z,2.53
2023-03-28T16:02:34.093Z,2.90
2023-03-28T16:05:11.492Z,3.42
2023-03-28T16:07:45.465Z,2.47
2023-03-28T16:10:17.560Z,2.45
2023-03-28T16:12:46.531Z,2.78
2023-03-28T16:15:15.612Z,3.00
2023-03-28T16:17:44.612Z,2.05
2023-03-28T16:20:23.862Z,2.97
2023-03-28T16:22:51.981Z,2.62
2023-03-28T16:25:19.946Z,1.92
2023-03-28T16:27:47.894Z,4.03
2023-03-28T16:30:21.000Z,1.98
2023-03-28T16:32:49.044Z,2.42
2023-03-28T16:35:17.103Z,3.33
2023-03-28T16:37:45.104Z,3.25
2023-03-28T16:40:13.378Z,1.65
2023-03-28T16:42:41.244Z,2.47
2023-03-28T16:45:13.058Z,3.42
2023-03-28T16:47:41.691Z,3.17
2023-03-28T16:50:10.939Z,3.12
2023-03-28T16:52:40.291Z,3.37
2023-03-28T16:55:12.695Z,2.80
2023-03-28T16:57:40.838Z,2.12
2023-03-28T17:00:13.206Z,2.45
2023-03-28T17:02:41.261Z,2.22
2023-03-28T17:05:09.633Z,2.03
2023-03-28T17:07:38.243Z,2.22
2023-03-28T17:10:06.849Z,2.30
2023-03-28T17:12:35.502Z,3.12
2023-03-28T17:15:03.528Z,2.85
2023-03-28T17:17:31.603Z,2.92
2023-03-28T17:19:59.553Z,4.70
2023-03-28T17:22:27.780Z,2.42
2023-03-28T17:24:58.265Z,2.87
2023-03-28T17:27:26.139Z,2.87
2023-03-28T17:29:54.111Z,2.78
2023-03-28T17:32:22.250Z,3.05
2023-03-28T17:34:50.229Z,5.65
2023-03-28T17:37:18.315Z,3.00
2023-03-28T17:39:47.910Z,2.53
2023-03-28T17:42:15.866Z,2.70
2023-03-28T17:44:43.870Z,2.80
2023-03-28T17:47:11.868Z,2.40
2023-03-28T17:49:39.880Z,4.20
2023-03-28T17:52:08.186Z,2.80
2023-03-28T17:54:36.093Z,2.80
2023-03-28T17:57:04.847Z,2.70
2023-03-28T17:59:32.999Z,2.65
2023-03-28T18:02:01.126Z,4.93
2023-03-28T18:04:29.160Z,4.62
2023-03-28T18:06:57.110Z,2.30
2023-03-28T18:09:25.051Z,3.67
2023-03-28T18:11:53.607Z,3.12
2023-03-28T18:14:21.500Z,3.42
2023-03-28T18:16:49.838Z,2.37
2023-03-28T18:19:19.842Z,3.47
2023-03-28T18:21:48.023Z,4.10
2023-03-28T18:24:16.363Z,4.78
2023-03-28T18:26:44.301Z,4.78
2023-03-28T18:29:12.808Z,5.82
2023-03-28T18:31:41.776Z,9.60
2023-03-28T18:34:09.680Z,6.50
2023-03-28T18:36:38.998Z,5.43
2023-03-28T18:39:07.485Z,6.82
2023-03-28T18:41:35.777Z,6.85
2023-03-28T18:44:04.834Z,5.65
2023-03-28T18:46:32.984Z,4.90
2023-03-28T18:49:02.127Z,5.32
2023-03-28T18:51:30.335Z,4.28
2023-03-28T18:53:58.570Z,3.28
2023-03-28T18:56:26.498Z,3.25
2023-03-28T18:58:54.821Z,3.37
2023-03-28T19:01:24.451Z,3.92
2023-03-28T19:03:53.468Z,3.72
2023-03-28T19:06:21.582Z,3.58
2023-03-28T19:08:49.902Z,3.85
2023-03-28T19:11:20.333Z,3.87
2023-03-28T19:13:48.397Z,4.20
2023-03-28T19:16:20.299Z,5.12
2023-03-28T19:18:48.632Z,4.95
2023-03-28T19:21:18.155Z,4.20
2023-03-28T19:23:48.318Z,4.60
2023-03-28T19:26:17.270Z,4.18
2023-03-28T19:28:45.153Z,3.90
2023-03-28T19:31:14.694Z,4.53
2023-03-28T19:33:43.267Z,4.50
2023-03-28T19:36:12.690Z,3.80
2023-03-28T19:38:41.441Z,4.03
2023-03-28T19:41:17.228Z,3.33
2023-03-28T19:43:46.019Z,4.03
2023-03-28T19:46:19.844Z,3.53
2023-03-28T19:48:48.111Z,4.22
2023-03-28T19:51:16.772Z,6.68
2023-03-28T19:53:44.661Z,10.10
2023-03-28T19:56:13.393Z,21.27
2023-03-28T19:58:42.203Z,16.10
2023-03-28T20:01:10.203Z,6.50
2023-03-28T20:03:38.153Z,3.92
2023-03-28T20:06:08.838Z,6.12
2023-03-28T20:08:36.911Z,6.95
2023-03-28T20:11:08.558Z,5.35
2023-03-28T20:13:36.865Z,12.00
2023-03-28T20:16:07.431Z,4.47
2023-03-28T20:18:35.927Z,6.18
2023-03-28T20:21:06.602Z,6.30
2023-03-28T20:23:34.948Z,5.28
2023-03-28T20:26:16.327Z,4.07
2023-03-28T20:28:44.376Z,5.57
2023-03-28T20:31:14.047Z,6.70
2023-03-28T20:33:42.373Z,5.28
2023-03-28T20:36:10.506Z,5.07
2023-03-28T20:38:38.529Z,6.53
2023-03-28T20:41:14.482Z,7.32
2023-03-28T20:43:48.173Z,7.47
2023-03-28T20:46:21.303Z,6.50
2023-03-28T20:48:53.661Z,7.03
2023-03-28T20:51:23.720Z,7.65
2023-03-28T20:53:55.738Z,8.20
2023-03-28T20:56:24.023Z,10.50
2023-03-28T20:58:52.038Z,8.07
2023-03-28T21:01:27.551Z,6.35
2023-03-28T21:03:59.251Z,4.32
2023-03-28T21:06:39.399Z,3.35
2023-03-28T21:09:09.555Z,4.72
2023-03-28T21:11:39.710Z,2.58
2023-03-28T21:14:09.110Z,4.35
2023-03-28T21:16:38.698Z,3.67
2023-03-28T21:19:07.074Z,2.85
2023-03-28T21:21:35.309Z,5.75
2023-03-28T21:24:04.846Z,3.40
2023-03-28T21:26:32.881Z,3.95
2023-03-28T21:29:00.883Z,3.53
2023-03-28T21:31:32.512Z,3.17
2023-03-28T21:34:01.060Z,4.47
2023-03-28T21:36:29.557Z,4.35
2023-03-28T21:38:57.988Z,3.95
2023-03-28T21:41:28.431Z,4.30
2023-03-28T21:43:56.460Z,4.10
2023-03-28T21:46:24.697Z,4.00
2023-03-28T21:48:52.731Z,3.55
2023-03-28T21:51:20.878Z,4.35
2023-03-28T21:53:48.854Z,3.87
2023-03-28T21:56:17.969Z,3.90
2023-03-28T21:58:46.238Z,3.80
2023-03-28T22:01:15.938Z,3.90
2023-03-28T22:03:44.030Z,3.87
2023-03-28T22:06:12.168Z,4.70
2023-03-28T22:08:41.147Z,3.10
2023-03-28T22:11:20.349Z,4.35
2023-03-28T22:13:51.088Z,4.03
2023-03-28T22:16:19.040Z,4.50
2023-03-28T22:18:50.845Z,4.60
2023-03-28T22:21:19.265Z,3.45
2023-03-28T22:23:48.680Z,3.72
2023-03-28T22:26:17.749Z,3.17
2023-03-28T22:28:46.122Z,4.82
2023-03-28T22:31:15.108Z,3.95
2023-03-28T22:33:43.292Z,3.50
2023-03-28T22:36:12.089Z,3.55
2023-03-28T22:38:40.007Z,4.82
2023-03-28T22:41:08.957Z,4.40
2023-03-28T22:43:37.649Z,5.40
2023-03-28T22:46:07.026Z,4.00
2023-03-28T22:48:34.958Z,3.40
2023-03-28T22:51:03.142Z,4.93
2023-03-28T22:53:31.266Z,4.97
2023-03-28T22:56:00.045Z,5.03
2023-03-28T22:58:28.608Z,5.12
2023-03-28T23:00:56.781Z,4.53
2023-03-28T23:03:25.211Z,6.40
2023-03-28T23:05:53.148Z,5.32
2023-03-28T23:08:21.536Z,4.32
2023-03-28T23:10:49.643Z,3.33
2023-03-28T23:13:17.793Z,5.50
2023-03-28T23:15:46.175Z,3.97
2023-03-28T23:18:15.903Z,5.45
2023-03-28T23:20:44.941Z,3.37
2023-03-28T23:23:14.090Z,6.53
2023-03-28T23:25:42.100Z,3.58
2023-03-28T23:28:10.050Z,4.05
2023-03-28T23:30:40.096Z,3.60
2023-03-28T23:33:08.598Z,3.83
2023-03-28T23:35:36.818Z,4.18
2023-03-28T23:38:04.968Z,3.70
2023-03-28T23:40:33.563Z,3.28
2023-03-28T23:43:01.617Z,3.55
2023-03-28T23:45:29.638Z,3.65
2023-03-28T23:47:57.766Z,5.22
2023-03-28T23:50:25.757Z,4.20
2023-03-28T23:52:53.965Z,3.30
2023-03-28T23:55:22.117Z,4.80
2023-03-28T23:57:50.081Z,4.53
